Time;durP1;ratioP1;P1;durP2;ratioP2;P2;SDS_P1;SDS_P2;PMS_P1;PMS_P2;Temp;Humidity;BMP_temperature;BMP_pressure;BME280_temperature;BME280_humidity;BME280_pressure;Samples;Min_cycle;Max_cycle;Signal;HPM_P1;HPM_P2
2023/04/23 00:00:47;;;;;;;0.20;0.20;;;11.20;99.90;;;;;;5056205;28;20116;-74
2023/04/23 00:03:13;;;;;;;0.30;0.30;;;11.10;99.90;;;;;;5038037;28;20021;-74
2023/04/23 00:05:41;;;;;;;0.20;0.20;;;11.10;99.90;;;;;;5056421;28;20456;-75
2023/04/23 00:08:07;;;;;;;0.20;0.20;;;11.00;99.90;;;;;;5056170;28;20035;-75
2023/04/23 00:10:33;;;;;;;0.20;0.20;;;10.90;99.90;;;;;;5056219;28;20021;-75
2023/04/23 00:12:59;;;;;;;0.20;0.20;;;10.80;99.90;;;;;;5055849;28;20033;-76
2023/04/23 00:15:25;;;;;;;0.20;0.20;;;10.80;99.90;;;;;;5055972;28;20028;-75
2023/04/23 00:17:50;;;;;;;0.20;0.20;;;10.70;99.90;;;;;;5056146;28;20155;-75
2023/04/23 00:20:16;;;;;;;0.20;0.20;;;10.60;99.90;;;;;;5055821;28;20112;-76
2023/04/23 00:22:44;;;;;;;0.20;0.20;;;10.60;99.90;;;;;;5055605;28;20066;-76
2023/04/23 00:25:10;;;;;;;0.10;0.10;;;10.60;99.90;;;;;;5055713;28;20033;-76
2023/04/23 00:27:36;;;;;;;0.13;0.13;;;10.50;99.90;;;;;;5056152;28;20029;-76
2023/04/23 00:30:06;;;;;;;0.20;0.20;;;10.40;99.90;;;;;;5056059;28;20475;-76
2023/04/23 00:32:32;;;;;;;0.10;0.10;;;10.30;99.90;;;;;;5055990;28;20024;-76
2023/04/23 00:34:57;;;;;;;0.20;0.20;;;10.20;99.90;;;;;;5055292;28;20021;-77
2023/04/23 00:37:23;;;;;;;0.13;0.13;;;10.20;99.90;;;;;;5055677;28;20025;-76
2023/04/23 00:39:48;;;;;;;0.20;0.20;;;10.10;99.90;;;;;;5055900;28;20029;-76
2023/04/23 00:42:16;;;;;;;0.20;0.20;;;10.00;99.90;;;;;;5055533;28;20017;-76
2023/04/23 00:44:42;;;;;;;0.22;0.22;;;9.90;99.90;;;;;;5037646;28;20029;-76
2023/04/23 00:47:07;;;;;;;0.20;0.20;;;9.70;99.90;;;;;;5055443;28;20410;-76
2023/04/23 00:49:34;;;;;;;0.20;0.20;;;9.70;99.90;;;;;;5055517;28;20025;-76
2023/04/23 00:52:00;;;;;;;0.20;0.20;;;9.70;99.90;;;;;;5055610;28;20039;-76
2023/04/23 00:54:26;;;;;;;0.13;0.13;;;9.60;99.90;;;;;;5054691;28;20041;-76
2023/04/23 00:56:54;;;;;;;0.20;0.20;;;9.60;99.90;;;;;;5055279;28;20051;-76
2023/04/23 00:59:20;;;;;;;0.20;0.20;;;9.60;99.90;;;;;;5055227;28;20032;-76
2023/04/23 01:01:47;;;;;;;0.20;0.20;;;9.60;99.90;;;;;;5055024;28;20036;-76
2023/04/23 01:04:16;;;;;;;0.20;0.20;;;9.50;99.90;;;;;;5054860;23;20050;-76
2023/04/23 01:06:45;;;;;;;0.20;0.20;;;9.50;99.90;;;;;;5015708;28;20056;-76
2023/04/23 01:09:11;;;;;;;0.20;0.20;;;9.40;99.90;;;;;;5015154;28;20476;-76
2023/04/23 01:11:42;;;;;;;0.30;0.30;;;9.40;99.90;;;;;;5015513;28;20030;-76
2023/04/23 01:14:09;;;;;;;0.20;0.20;;;9.30;99.90;;;;;;5023195;28;20036;-76
2023/04/23 01:16:37;;;;;;;0.17;0.17;;;9.30;99.90;;;;;;5017388;28;20025;-75
2023/04/23 01:19:06;;;;;;;0.20;0.20;;;9.20;99.90;;;;;;5034830;28;20030;-76
2023/04/23 01:21:35;;;;;;;0.20;0.20;;;9.10;99.90;;;;;;5034714;28;20018;-76
2023/04/23 01:24:05;;;;;;;0.20;0.20;;;9.10;99.90;;;;;;5034716;28;20119;-76
2023/04/23 01:26:31;;;;;;;0.10;0.10;;;9.10;99.90;;;;;;5017213;28;20068;-76
2023/04/23 01:28:58;;;;;;;0.20;0.20;;;9.10;99.90;;;;;;5016834;28;20487;-76
2023/04/23 01:31:24;;;;;;;0.20;0.20;;;9.10;99.90;;;;;;5034993;28;20429;-76
2023/04/23 01:34:00;;;;;;;0.20;0.20;;;9.10;99.90;;;;;;5034478;28;20064;-76
2023/04/23 01:36:26;;;;;;;0.13;0.13;;;9.10;99.90;;;;;;5034789;28;20021;-76
2023/04/23 01:38:52;;;;;;;0.20;0.20;;;9.00;99.90;;;;;;5034391;28;20429;-76
2023/04/23 01:41:18;;;;;;;0.13;0.13;;;9.00;99.90;;;;;;5034615;28;20021;-76
2023/04/23 01:43:44;;;;;;;0.20;0.20;;;9.00;99.90;;;;;;5034683;28;20021;-76
2023/04/23 01:46:13;;;;;;;0.20;0.20;;;9.00;99.90;;;;;;5034529;28;20032;-75
2023/04/23 01:48:38;;;;;;;0.15;0.15;;;9.00;99.90;;;;;;5033746;28;20395;-76
2023/04/23 01:51:04;;;;;;;0.10;0.10;;;9.00;99.90;;;;;;5034794;28;20021;-75
2023/04/23 01:53:30;;;;;;;0.20;0.20;;;8.90;99.90;;;;;;5016511;28;20112;-75
2023/04/23 01:55:56;;;;;;;0.10;0.10;;;9.00;99.90;;;;;;5016472;28;20022;-76
2023/04/23 01:58:24;;;;;;;0.20;0.20;;;8.90;99.90;;;;;;5033976;28;20446;-76
2023/04/23 02:00:52;;;;;;;0.10;0.10;;;8.90;99.90;;;;;;5016578;28;20056;-75
2023/04/23 02:03:17;;;;;;;0.20;0.20;;;8.90;99.90;;;;;;5034437;28;20121;-76
2023/04/23 02:05:44;;;;;;;0.20;0.20;;;8.90;99.90;;;;;;5034227;28;20530;-75
2023/04/23 02:08:10;;;;;;;0.20;0.20;;;8.90;99.90;;;;;;5016256;28;20112;-75
2023/04/23 02:10:36;;;;;;;0.20;0.20;;;8.90;99.90;;;;;;5034146;28;20376;-75
2023/04/23 02:13:02;;;;;;;0.17;0.17;;;8.90;99.90;;;;;;5016345;28;20033;-75
2023/04/23 02:15:28;;;;;;;0.10;0.10;;;8.90;99.90;;;;;;5015256;28;20096;-75
2023/04/23 02:17:54;;;;;;;0.17;0.17;;;8.90;99.90;;;;;;5016398;28;20087;-76
2023/04/23 02:20:20;;;;;;;0.20;0.20;;;8.90;99.90;;;;;;5016066;28;20026;-76
2023/04/23 02:22:46;;;;;;;0.20;0.20;;;8.90;99.90;;;;;;5015927;28;20021;-76
2023/04/23 02:25:15;;;;;;;0.10;0.10;;;8.90;99.90;;;;;;5033347;28;20040;-76
2023/04/23 02:27:41;;;;;;;0.20;0.20;;;8.90;99.90;;;;;;5033917;28;20013;-76
2023/04/23 02:30:08;;;;;;;0.20;0.20;;;8.90;99.90;;;;;;5016073;28;20495;-76
2023/04/23 02:32:35;;;;;;;0.15;0.15;;;9.00;99.90;;;;;;5033126;28;20026;-76
2023/04/23 02:35:00;;;;;;;0.20;0.20;;;8.90;99.90;;;;;;5016001;28;20415;-75
2023/04/23 02:37:26;;;;;;;0.17;0.17;;;8.90;99.90;;;;;;5033434;28;20021;-76
2023/04/23 02:39:52;;;;;;;0.10;0.10;;;9.00;99.90;;;;;;5033944;28;20391;-76
2023/04/23 02:42:18;;;;;;;0.10;0.10;;;9.00;99.90;;;;;;5015302;28;20053;-76
2023/04/23 02:44:43;;;;;;;0.20;0.20;;;9.00;99.90;;;;;;5015893;28;20095;-76
2023/04/23 02:47:09;;;;;;;0.10;0.10;;;8.90;99.90;;;;;;5015810;28;20108;-75
2023/04/23 02:49:35;;;;;;;0.13;0.13;;;9.00;99.90;;;;;;5015758;28;20463;-76
2023/04/23 02:52:00;;;;;;;0.10;0.10;;;8.90;99.90;;;;;;5033082;28;20025;-76
2023/04/23 02:54:31;;;;;;;0.20;0.20;;;8.80;99.90;;;;;;5033032;28;20029;-76
2023/04/23 02:57:00;;;;;;;0.20;0.20;;;8.70;99.90;;;;;;5033382;28;20079;-75
2023/04/23 02:59:26;;;;;;;0.15;0.15;;;8.70;99.90;;;;;;5032966;28;20045;-75
2023/04/23 03:01:51;;;;;;;0.15;0.15;;;8.60;99.90;;;;;;5033156;28;20049;-76
2023/04/23 03:04:17;;;;;;;0.20;0.20;;;8.60;99.90;;;;;;5032454;28;20487;-75
2023/04/23 03:06:43;;;;;;;0.10;0.10;;;8.60;99.90;;;;;;5033116;28;20033;-75
2023/04/23 03:09:08;;;;;;;0.15;0.15;;;8.60;99.90;;;;;;5033588;28;20053;-75
2023/04/23 03:11:34;;;;;;;0.15;0.15;;;8.60;99.90;;;;;;5015056;28;20060;-75
2023/04/23 03:13:59;;;;;;;0.20;0.20;;;8.50;99.90;;;;;;5033117;28;20072;-75
2023/04/23 03:16:27;;;;;;;0.20;0.20;;;8.50;99.90;;;;;;5015330;28;20028;-75
2023/04/23 03:18:52;;;;;;;0.20;0.20;;;8.50;99.90;;;;;;5032367;28;20434;-75
2023/04/23 03:21:18;;;;;;;0.10;0.10;;;8.40;99.90;;;;;;5033236;28;20025;-75
2023/04/23 03:23:43;;;;;;;0.10;0.10;;;8.40;99.90;;;;;;5039012;23;20515;-75
2023/04/23 03:26:09;;;;;;;0.20;0.20;;;8.30;99.90;;;;;;5033126;28;20065;-75
2023/04/23 03:28:35;;;;;;;0.20;0.20;;;8.30;99.90;;;;;;5032589;28;20057;-75
2023/04/23 03:31:00;;;;;;;0.20;0.20;;;8.20;99.90;;;;;;5032914;28;20029;-75
2023/04/23 03:33:26;;;;;;;0.20;0.20;;;8.20;99.90;;;;;;5016623;28;20095;-75
2023/04/23 03:35:51;;;;;;;0.10;0.10;;;8.10;99.90;;;;;;5052741;28;20025;-75
2023/04/23 03:38:17;;;;;;;0.17;0.17;;;8.00;99.90;;;;;;5052655;28;20033;-75
2023/04/23 03:40:44;;;;;;;0.20;0.20;;;8.00;99.90;;;;;;5052299;28;20029;-75
2023/04/23 03:43:10;;;;;;;0.30;0.30;;;8.00;99.90;;;;;;5034855;28;20033;-75
2023/04/23 03:45:35;;;;;;;0.15;0.15;;;7.90;99.90;;;;;;5052525;28;20017;-75
2023/04/23 03:48:01;;;;;;;0.20;0.20;;;7.80;99.90;;;;;;5052369;28;20021;-75
2023/04/23 03:50:26;;;;;;;0.20;0.20;;;7.80;99.90;;;;;;5052767;28;20037;-76
2023/04/23 03:52:52;;;;;;;0.20;0.20;;;7.70;99.90;;;;;;5051990;28;20021;-75
2023/04/23 03:55:19;;;;;;;0.15;0.15;;;7.70;99.90;;;;;;5052454;28;20029;-75
2023/04/23 03:57:45;;;;;;;0.20;0.20;;;7.70;99.90;;;;;;5034599;28;20031;-76
2023/04/23 04:00:11;;;;;;;0.20;0.20;;;7.70;99.90;;;;;;5052370;28;20108;-76
2023/04/23 04:02:40;;;;;;;0.13;0.13;;;7.60;99.90;;;;;;5052867;28;20494;-75
2023/04/23 04:05:06;;;;;;;0.20;0.20;;;7.60;99.90;;;;;;5051692;28;20037;-75
2023/04/23 04:07:32;;;;;;;0.20;0.20;;;7.60;99.90;;;;;;5034599;28;20071;-75
2023/04/23 04:09:58;;;;;;;0.10;0.10;;;7.60;99.90;;;;;;5052449;28;20080;-75
2023/04/23 04:12:23;;;;;;;0.15;0.15;;;7.60;99.90;;;;;;5052296;28;20033;-75
2023/04/23 04:14:49;;;;;;;0.20;0.20;;;7.50;99.90;;;;;;5051821;28;20029;-76
2023/04/23 04:17:15;;;;;;;0.13;0.13;;;7.50;99.90;;;;;;5051984;28;20434;-75
2023/04/23 04:19:41;;;;;;;0.10;0.10;;;7.40;99.90;;;;;;5052252;28;20025;-75
2023/04/23 04:22:07;;;;;;;0.17;0.17;;;7.50;99.90;;;;;;5033938;28;20398;-76
2023/04/23 04:24:34;;;;;;;0.15;0.15;;;7.40;99.90;;;;;;5051798;28;20025;-75
2023/04/23 04:27:00;;;;;;;0.20;0.20;;;7.40;99.90;;;;;;5034589;28;20024;-75
2023/04/23 04:29:26;;;;;;;0.20;0.20;;;7.40;99.90;;;;;;5052036;28;20029;-76
2023/04/23 04:31:53;;;;;;;0.20;0.20;;;7.30;99.90;;;;;;5051797;28;20017;-75
2023/04/23 04:34:19;;;;;;;0.30;0.30;;;7.30;99.90;;;;;;5051717;28;20028;-75
2023/04/23 04:36:45;;;;;;;0.10;0.10;;;7.30;99.90;;;;;;5052081;28;20025;-75
2023/04/23 04:39:12;;;;;;;0.20;0.20;;;7.20;99.90;;;;;;5053095;28;20398;-75
2023/04/23 04:41:39;;;;;;;0.20;0.20;;;7.10;99.90;;;;;;5037951;28;20426;-75
2023/04/23 04:44:06;;;;;;;0.20;0.20;;;7.10;99.90;;;;;;5055697;28;20074;-76
2023/04/23 04:46:32;;;;;;;0.20;0.20;;;7.10;99.90;;;;;;5055187;28;20108;-75
2023/04/23 04:48:58;;;;;;;0.20;0.20;;;7.10;99.90;;;;;;5037721;28;20017;-76
2023/04/23 04:51:28;;;;;;;0.20;0.20;;;7.20;99.90;;;;;;5055428;28;20032;-76
2023/04/23 04:53:54;;;;;;;0.20;0.20;;;7.20;99.90;;;;;;5055490;28;20074;-75
2023/04/23 04:56:22;;;;;;;0.17;0.17;;;7.30;99.90;;;;;;5055118;28;20017;-75
2023/04/23 04:58:48;;;;;;;0.20;0.20;;;7.30;99.90;;;;;;5055107;28;20017;-75
2023/04/23 05:01:14;;;;;;;0.20;0.20;;;7.40;99.90;;;;;;5055287;28;20154;-75
2023/04/23 05:03:40;;;;;;;0.20;0.20;;;7.50;99.90;;;;;;5037627;28;20028;-75
2023/04/23 05:06:05;;;;;;;0.28;0.28;;;7.60;99.90;;;;;;5055217;28;20021;-75
2023/04/23 05:08:31;;;;;;;0.10;0.10;;;7.70;99.90;;;;;;5037122;28;20021;-75
2023/04/23 05:10:56;;;;;;;0.10;0.10;;;7.80;99.90;;;;;;5055041;28;20032;-75
2023/04/23 05:13:22;;;;;;;0.20;0.20;;;7.90;99.90;;;;;;5054891;28;20032;-75
2023/04/23 05:15:48;;;;;;;0.20;0.20;;;7.90;99.90;;;;;;5054882;28;20029;-75
2023/04/23 05:18:13;;;;;;;0.20;0.20;;;7.90;99.90;;;;;;5055136;28;20117;-75
2023/04/23 05:20:39;;;;;;;0.20;0.20;;;7.90;99.90;;;;;;5054710;28;20028;-75
2023/04/23 05:23:05;;;;;;;0.20;0.20;;;7.90;99.90;;;;;;5036938;28;20025;-75
2023/04/23 05:25:34;;;;;;;0.25;0.25;;;8.00;99.90;;;;;;5054874;28;20508;-75
2023/04/23 05:28:00;;;;;;;0.20;0.20;;;8.00;99.90;;;;;;5054714;28;20063;-75
2023/04/23 05:30:26;;;;;;;0.20;0.20;;;8.10;99.90;;;;;;5054492;28;20025;-75
2023/04/23 05:32:51;;;;;;;0.20;0.20;;;8.20;99.90;;;;;;5054789;28;20029;-75
2023/04/23 05:35:17;;;;;;;0.10;0.10;;;8.20;99.90;;;;;;5054746;28;20036;-75
2023/04/23 05:37:43;;;;;;;0.10;0.10;;;8.30;99.90;;;;;;5054161;28;20036;-75
2023/04/23 05:40:09;;;;;;;0.30;0.30;;;8.30;99.90;;;;;;5054457;28;20028;-76
2023/04/23 05:42:35;;;;;;;0.20;0.20;;;8.40;99.90;;;;;;5054539;28;20013;-75
2023/04/23 05:45:01;;;;;;;0.17;0.17;;;8.40;99.90;;;;;;5054209;28;20036;-75
2023/04/23 05:47:27;;;;;;;0.20;0.20;;;8.40;99.90;;;;;;5054223;28;20471;-75
2023/04/23 05:49:52;;;;;;;0.20;0.20;;;8.50;99.90;;;;;;5036385;28;20379;-75
2023/04/23 05:52:18;;;;;;;0.10;0.10;;;8.50;99.90;;;;;;5054655;28;20074;-75
2023/04/23 05:54:43;;;;;;;0.20;0.20;;;8.50;99.90;;;;;;5036381;28;20037;-75
2023/04/23 05:57:10;;;;;;;0.20;0.20;;;8.50;99.90;;;;;;5053751;28;20069;-75
2023/04/23 05:59:36;;;;;;;0.20;0.20;;;8.50;99.90;;;;;;5054604;28;20079;-75
2023/04/23 06:02:01;;;;;;;0.10;0.10;;;8.60;99.90;;;;;;5054008;28;20055;-75
2023/04/23 06:04:27;;;;;;;0.10;0.10;;;8.60;99.90;;;;;;5054112;28;20490;-75
2023/04/23 06:06:52;;;;;;;0.20;0.20;;;8.80;99.90;;;;;;5054179;28;20100;-75
2023/04/23 06:09:18;;;;;;;0.20;0.20;;;8.80;99.90;;;;;;5035774;28;20059;-75
2023/04/23 06:11:44;;;;;;;0.20;0.20;;;9.00;99.90;;;;;;5036524;28;20021;-75
2023/04/23 06:14:09;;;;;;;0.10;0.10;;;9.00;99.90;;;;;;5053789;28;20120;-75
2023/04/23 06:16:35;;;;;;;0.20;0.20;;;9.20;99.90;;;;;;5054138;28;20063;-76
2023/04/23 06:19:00;;;;;;;0.20;0.20;;;9.20;99.90;;;;;;5054011;28;20033;-75
2023/04/23 06:21:26;;;;;;;0.20;0.20;;;9.20;99.90;;;;;;5053331;28;20017;-75
2023/04/23 06:23:52;;;;;;;0.13;0.13;;;9.20;99.90;;;;;;5053717;28;20033;-75
2023/04/23 06:26:17;;;;;;;0.20;0.20;;;9.20;99.90;;;;;;5053553;28;20064;-75
2023/04/23 06:28:45;;;;;;;0.13;0.13;;;9.20;99.90;;;;;;5053906;28;20025;-75
2023/04/23 06:31:11;;;;;;;0.20;0.20;;;9.20;99.90;;;;;;5053348;28;20025;-75
2023/04/23 06:33:37;;;;;;;0.10;0.10;;;9.10;99.90;;;;;;5053281;28;20028;-75
2023/04/23 06:36:03;;;;;;;0.20;0.20;;;9.10;99.90;;;;;;5053330;28;20119;-75
2023/04/23 06:38:29;;;;;;;0.10;0.10;;;9.10;99.90;;;;;;5053533;28;20554;-74
2023/04/23 06:40:54;;;;;;;0.20;0.20;;;9.10;99.90;;;;;;5053632;28;20112;-75
2023/04/23 06:43:20;;;;;;;0.20;0.20;;;9.10;99.90;;;;;;5035168;28;20055;-75
2023/04/23 06:45:46;;;;;;;0.20;0.20;;;9.10;99.90;;;;;;5053373;28;20029;-75
2023/04/23 06:48:11;;;;;;;0.20;0.20;;;9.10;99.90;;;;;;5052709;28;20066;-75
2023/04/23 06:50:38;;;;;;;0.10;0.10;;;9.20;99.90;;;;;;5053428;28;20064;-75
2023/04/23 06:53:04;;;;;;;0.10;0.10;;;9.20;99.90;;;;;;5053275;28;20071;-75
2023/04/23 06:55:30;;;;;;;0.20;0.20;;;9.30;99.90;;;;;;5035505;28;20429;-76
2023/04/23 06:57:55;;;;;;;0.10;0.10;;;9.30;99.90;;;;;;5052774;28;20033;-75
2023/04/23 07:00:22;;;;;;;0.20;0.20;;;9.50;99.90;;;;;;5053118;28;20052;-76
2023/04/23 07:02:47;;;;;;;0.10;0.10;;;9.70;99.90;;;;;;5034627;28;20078;-75
2023/04/23 07:05:13;;;;;;;0.20;0.20;;;9.80;99.90;;;;;;5039353;23;20140;-73
2023/04/23 07:07:41;;;;;;;0.20;0.20;;;10.00;99.90;;;;;;5016327;28;20018;-73
2023/04/23 07:10:08;;;;;;;0.10;0.10;;;10.00;99.90;;;;;;5014971;28;20025;-73
2023/04/23 07:12:33;;;;;;;0.20;0.20;;;10.10;99.90;;;;;;5015759;28;20033;-73
2023/04/23 07:14:59;;;;;;;0.20;0.20;;;10.10;99.90;;;;;;5020947;28;20025;-74
2023/04/23 07:17:25;;;;;;;0.20;0.20;;;10.20;99.90;;;;;;5034157;28;20051;-74
2023/04/23 07:19:50;;;;;;;0.20;0.20;;;10.20;99.90;;;;;;5035719;28;20029;-74
2023/04/23 07:22:16;;;;;;;0.20;0.20;;;10.30;99.90;;;;;;5035665;28;20051;-74
2023/04/23 07:24:46;;;;;;;0.20;0.20;;;10.30;99.90;;;;;;5035201;28;20057;-74
2023/04/23 07:27:11;;;;;;;0.13;0.13;;;10.30;99.90;;;;;;5035649;28;20076;-73
2023/04/23 07:29:37;;;;;;;0.30;0.30;;;10.50;99.90;;;;;;5034159;28;20426;-74
2023/04/23 07:32:03;;;;;;;0.10;0.10;;;10.50;99.90;;;;;;5035549;28;20030;-74
2023/04/23 07:34:28;;;;;;;0.10;0.10;;;10.60;99.90;;;;;;5035654;28;20032;-73
2023/04/23 07:36:56;;;;;;;0.10;0.10;;;10.60;99.90;;;;;;5034826;28;20025;-73
2023/04/23 07:39:22;;;;;;;0.20;0.20;;;10.70;99.90;;;;;;5035194;28;20030;-74
2023/04/23 07:41:47;;;;;;;0.20;0.20;;;10.90;99.90;;;;;;5035007;28;20056;-73
2023/04/23 07:44:13;;;;;;;0.10;0.10;;;11.00;99.90;;;;;;5036378;28;20025;-73
2023/04/23 07:46:41;;;;;;;0.20;0.20;;;11.00;99.90;;;;;;5035186;28;20071;-74
2023/04/23 07:49:07;;;;;;;0.20;0.20;;;11.10;99.90;;;;;;5033925;28;20124;-74
2023/04/23 07:51:33;;;;;;;0.10;0.10;;;11.10;99.90;;;;;;5034251;28;20656;-74
2023/04/23 07:53:58;;;;;;;0.20;0.20;;;11.10;99.90;;;;;;5035493;28;20026;-73
2023/04/23 07:56:24;;;;;;;0.20;0.20;;;11.10;99.90;;;;;;5035258;28;20461;-73
2023/04/23 07:58:50;;;;;;;0.10;0.10;;;11.10;99.90;;;;;;5034912;28;20022;-73
2023/04/23 08:01:16;;;;;;;0.20;0.20;;;11.20;99.90;;;;;;5033626;28;20021;-74
2023/04/23 08:03:41;;;;;;;0.20;0.20;;;11.20;99.90;;;;;;5035756;28;20033;-74
2023/04/23 08:06:10;;;;;;;0.17;0.17;;;11.30;99.90;;;;;;5034924;28;20034;-74
2023/04/23 08:08:36;;;;;;;0.10;0.10;;;11.40;99.90;;;;;;5034329;28;20112;-74
2023/04/23 08:11:02;;;;;;;0.20;0.20;;;11.50;99.90;;;;;;5034771;28;20483;-74
2023/04/23 08:13:27;;;;;;;0.20;0.20;;;11.40;99.90;;;;;;5034840;28;20104;-73
2023/04/23 08:15:53;;;;;;;0.20;0.20;;;11.40;99.90;;;;;;5038944;28;20040;-74
2023/04/23 08:18:18;;;;;;;0.20;0.20;;;11.50;99.90;;;;;;5039060;28;20049;-74
2023/04/23 08:20:44;;;;;;;0.20;0.20;;;11.40;99.90;;;;;;5038856;28;20029;-73
2023/04/23 08:23:10;;;;;;;0.20;0.20;;;11.50;99.90;;;;;;5038490;28;20048;-73
2023/04/23 08:25:35;;;;;;;0.15;0.15;;;11.40;99.90;;;;;;5037401;28;20025;-73
2023/04/23 08:28:01;;;;;;;0.20;0.20;;;11.50;99.90;;;;;;5038919;28;20045;-73
2023/04/23 08:30:26;;;;;;;0.10;0.10;;;11.60;99.90;;;;;;5038825;28;20017;-74
2023/04/23 08:32:52;;;;;;;0.20;0.20;;;11.50;99.90;;;;;;5036902;28;20028;-73
2023/04/23 08:35:18;;;;;;;0.10;0.10;;;11.50;99.90;;;;;;5038151;28;20032;-74
2023/04/23 08:37:45;;;;;;;0.20;0.20;;;11.50;99.90;;;;;;5038837;28;20100;-73
2023/04/23 08:40:10;;;;;;;0.17;0.17;;;11.60;99.90;;;;;;5036885;28;20022;-74
2023/04/23 08:42:44;;;;;;;0.20;0.20;;;11.80;99.90;;;;;;5038707;28;20033;-73
2023/04/23 08:45:11;;;;;;;0.10;0.10;;;12.10;99.90;;;;;;5037758;28;20079;-74
2023/04/23 08:47:41;;;;;;;0.20;0.20;;;12.20;99.90;;;;;;5038165;28;20410;-74
2023/04/23 08:50:09;;;;;;;0.10;0.10;;;12.10;99.90;;;;;;5038158;28;20075;-75
2023/04/23 08:52:37;;;;;;;0.10;0.10;;;12.20;99.90;;;;;;5037882;28;20404;-73
2023/04/23 08:55:09;;;;;;;0.20;0.20;;;12.30;99.90;;;;;;5038016;28;20088;-72
2023/04/23 08:57:39;;;;;;;0.20;0.20;;;12.30;99.90;;;;;;5038090;28;20040;-74
2023/04/23 09:00:09;;;;;;;0.20;0.20;;;12.30;99.90;;;;;;5036788;28;20060;-74
2023/04/23 09:02:39;;;;;;;0.20;0.20;;;12.40;99.90;;;;;;5037669;28;20028;-74
2023/04/23 09:05:05;;;;;;;0.20;0.20;;;12.40;99.90;;;;;;5037680;28;20490;-74
2023/04/23 09:07:33;;;;;;;0.10;0.10;;;12.50;99.90;;;;;;5038124;28;20052;-74
2023/04/23 09:09:58;;;;;;;0.20;0.20;;;12.50;99.90;;;;;;5038032;28;20567;-73
2023/04/23 09:12:24;;;;;;;0.10;0.10;;;12.40;99.90;;;;;;5038124;28;20116;-74
2023/04/23 09:14:50;;;;;;;0.20;0.20;;;12.30;99.90;;;;;;5037528;28;20035;-74
2023/04/23 09:17:17;;;;;;;0.20;0.20;;;12.20;99.90;;;;;;5037467;28;20104;-74
2023/04/23 09:19:45;;;;;;;0.17;0.17;;;12.10;99.90;;;;;;5036642;28;20032;-74
2023/04/23 09:22:10;;;;;;;0.20;0.20;;;12.30;99.90;;;;;;5036762;28;20026;-74
2023/04/23 09:24:45;;;;;;;0.10;0.10;;;12.50;99.90;;;;;;5037136;28;20076;-74
2023/04/23 09:27:10;;;;;;;0.10;0.10;;;12.90;99.90;;;;;;5037458;28;20069;-74
2023/04/23 09:29:36;;;;;;;0.10;0.10;;;13.10;99.90;;;;;;5037721;28;20120;-76
2023/04/23 09:32:06;;;;;;;0.20;0.20;;;13.10;99.90;;;;;;5037885;28;20033;-75
2023/04/23 09:34:35;;;;;;;0.10;0.10;;;13.30;99.90;;;;;;5038078;28;20030;-76
2023/04/23 09:37:02;;;;;;;0.10;0.10;;;13.50;99.90;;;;;;5037753;28;20151;-76
2023/04/23 09:39:30;;;;;;;0.20;0.20;;;13.60;99.90;;;;;;5036138;28;20026;-75
2023/04/23 09:42:03;;;;;;;0.20;0.20;;;13.80;99.90;;;;;;5036056;28;20494;-75
2023/04/23 09:44:34;;;;;;;0.20;0.20;;;13.80;99.90;;;;;;5036879;28;20052;-76
2023/04/23 09:47:09;;;;;;;0.20;0.20;;;14.00;99.90;;;;;;5037918;28;20439;-76
2023/04/23 09:49:48;;;;;;;0.10;0.10;;;13.80;99.90;;;;;;5036183;28;20100;-75
2023/04/23 09:52:13;;;;;;;0.10;0.10;;;13.90;99.90;;;;;;5037333;28;20422;-76
2023/04/23 09:54:39;;;;;;;0.20;0.20;;;14.00;99.90;;;;;;5037501;28;20029;-75
2023/04/23 09:57:07;;;;;;;0.13;0.13;;;14.00;99.90;;;;;;5037175;28;20069;-75
2023/04/23 09:59:36;;;;;;;0.20;0.20;;;14.40;99.90;;;;;;5035861;28;20403;-75
2023/04/23 10:02:03;;;;;;;0.20;0.20;;;14.60;99.90;;;;;;5034768;28;20108;-76
2023/04/23 10:04:29;;;;;;;0.20;0.20;;;14.50;99.90;;;;;;5036765;28;20096;-75
2023/04/23 10:06:56;;;;;;;0.20;0.20;;;14.70;99.90;;;;;;5037109;28;20049;-76
2023/04/23 10:09:23;;;;;;;0.20;0.20;;;14.80;99.90;;;;;;5037475;28;20025;-76
2023/04/23 10:11:53;;;;;;;0.20;0.20;;;14.80;99.90;;;;;;5036592;28;20120;-76
2023/04/23 10:14:20;;;;;;;0.20;0.20;;;14.90;99.90;;;;;;5035422;28;20032;-76
2023/04/23 10:16:47;;;;;;;0.10;0.10;;;14.90;99.90;;;;;;5036097;28;20029;-76
2023/04/23 10:19:24;;;;;;;0.10;0.10;;;14.90;99.90;;;;;;5036022;28;20029;-76
2023/04/23 10:22:00;;;;;;;0.10;0.10;;;15.00;99.90;;;;;;5037040;28;20083;-76
2023/04/23 10:24:29;;;;;;;0.10;0.10;;;15.10;99.90;;;;;;5035882;28;20022;-76
2023/04/23 10:26:57;;;;;;;0.10;0.10;;;15.30;99.90;;;;;;5036827;28;20017;-76
2023/04/23 10:29:28;;;;;;;0.10;0.10;;;15.00;99.90;;;;;;5036764;28;20029;-76
2023/04/23 10:31:56;;;;;;;0.20;0.20;;;15.10;99.90;;;;;;5035248;28;20410;-75
2023/04/23 10:34:24;;;;;;;0.13;0.13;;;15.30;99.90;;;;;;5035635;28;20053;-75
2023/04/23 10:36:51;;;;;;;0.10;0.10;;;15.60;99.90;;;;;;5022864;23;20042;-76
2023/04/23 10:39:18;;;;;;;0.10;0.10;;;15.70;99.90;;;;;;5015529;28;20464;-75
2023/04/23 10:41:45;;;;;;;0.20;0.20;;;16.10;99.90;;;;;;5016963;28;20022;-76
2023/04/23 10:44:15;;;;;;;0.10;0.10;;;16.20;99.90;;;;;;5016124;28;20022;-74
2023/04/23 10:47:00;;;;;;;0.20;0.20;;;16.20;99.90;;;;;;5035086;28;20101;-75
2023/04/23 10:49:30;;;;;;;0.10;0.10;;;16.10;99.90;;;;;;5036339;28;20030;-75
2023/04/23 10:52:03;;;;;;;0.10;0.10;;;16.10;99.90;;;;;;5036185;28;20036;-76
2023/04/23 10:54:32;;;;;;;;;;;16.40;99.90;;;;;;5034840;28;20049;-76
2023/04/23 10:57:08;;;;;;;0.10;0.10;;;16.70;99.90;;;;;;5034623;28;20274;-76
2023/04/23 10:59:38;;;;;;;0.10;0.10;;;16.50;99.90;;;;;;5036242;28;20433;-75
2023/04/23 11:02:10;;;;;;;0.10;0.10;;;16.40;99.90;;;;;;5036231;28;20025;-75
2023/04/23 11:04:43;;;;;;;0.20;0.20;;;16.50;99.90;;;;;;5057851;23;20429;-75
2023/04/23 11:07:10;;;;;;;0.10;0.10;;;16.40;99.90;;;;;;4996295;28;20131;-75
2023/04/23 11:09:38;;;;;;;0.10;0.10;;;16.50;99.90;;;;;;4996211;28;20065;-75
2023/04/23 11:12:12;;;;;;;0.10;0.10;;;16.50;99.90;;;;;;4978842;28;20026;-75
2023/04/23 11:14:46;;;;;;;0.20;0.20;;;16.40;99.90;;;;;;4996080;28;20038;-75
2023/04/23 11:17:16;;;;;;;0.15;0.15;;;16.20;99.90;;;;;;4996107;28;20045;-75
2023/04/23 11:20:12;;;;;;;0.10;0.10;;;16.20;99.90;;;;;;4978869;28;20031;-75
2023/04/23 11:22:51;;;;;;;0.20;0.20;;;16.60;99.90;;;;;;4996265;28;20488;-75
2023/04/23 11:25:24;;;;;;;0.10;0.10;;;16.60;99.90;;;;;;4995731;28;20026;-74
2023/04/23 11:27:51;;;;;;;0.10;0.10;;;16.50;99.90;;;;;;4996326;28;20383;-75
2023/04/23 11:30:19;;;;;;;0.10;0.10;;;16.40;99.90;;;;;;4995825;28;20439;-75
2023/04/23 11:32:47;;;;;;;0.10;0.10;;;16.40;99.90;;;;;;4996604;28;20030;-75
2023/04/23 11:35:14;;;;;;;0.13;0.13;;;16.60;99.90;;;;;;4996408;28;20023;-75
2023/04/23 11:37:40;;;;;;;0.10;0.10;;;16.90;99.90;;;;;;4996021;28;20399;-74
2023/04/23 11:40:09;;;;;;;0.10;0.10;;;17.10;99.90;;;;;;4978289;28;20034;-74
2023/04/23 11:42:45;;;;;;;0.10;0.10;;;16.70;99.90;;;;;;4995488;28;20023;-75
2023/04/23 11:45:40;;;;;;;0.10;0.10;;;16.40;99.90;;;;;;4985380;23;20392;-75
2023/04/23 11:48:08;;;;;;;0.10;0.10;;;16.50;99.90;;;;;;4980053;28;20180;-75
2023/04/23 11:50:34;;;;;;;0.10;0.10;;;16.40;99.90;;;;;;5019277;28;20030;-75
2023/04/23 11:53:09;;;;;;;0.15;0.15;;;16.60;99.90;;;;;;5019014;28;20168;-75
2023/04/23 11:55:34;;;;;;;0.10;0.10;;;16.20;99.90;;;;;;5029454;28;20090;-73
2023/04/23 11:58:00;;;;;;;0.10;0.10;;;16.30;99.90;;;;;;5019717;28;20085;-73
2023/04/23 12:00:26;;;;;;;0.10;0.10;;;16.30;99.90;;;;;;5019064;28;20510;-73
2023/04/23 12:02:52;;;;;;;0.20;0.20;;;16.10;99.90;;;;;;5019047;28;20404;-73
2023/04/23 12:05:38;;;;;;;0.20;0.20;;;16.20;99.90;;;;;;5018490;28;20041;-73
2023/04/23 12:08:13;;;;;;;0.20;0.20;;;16.10;99.90;;;;;;5018592;28;20145;-73
2023/04/23 12:10:57;;;;;;;0.20;0.20;;;15.80;99.90;;;;;;5030322;28;20021;-73
2023/04/23 12:13:26;;;;;;;0.10;0.10;;;15.70;99.90;;;;;;5038546;28;20037;-73
2023/04/23 12:15:57;;;;;;;0.10;0.10;;;15.50;99.90;;;;;;5037324;28;20033;-73
2023/04/23 12:18:31;;;;;;;0.10;0.10;;;15.40;99.90;;;;;;5037688;28;20072;-74
2023/04/23 12:21:16;;;;;;;0.10;0.10;;;15.10;99.90;;;;;;5037584;28;20029;-74
2023/04/23 12:23:43;;;;;;;0.20;0.20;;;15.20;99.90;;;;;;5037393;28;20025;-74
2023/04/23 12:26:15;;;;;;;0.20;0.20;;;15.10;99.90;;;;;;5038249;28;20040;-74
2023/04/23 12:28:50;;;;;;;0.10;0.10;;;15.10;99.90;;;;;;5038895;28;20468;-74
2023/04/23 12:31:24;;;;;;;0.13;0.13;;;15.00;99.90;;;;;;5038424;28;20040;-74
2023/04/23 12:34:07;;;;;;;0.10;0.10;;;15.00;99.90;;;;;;5038802;28;20037;-74
2023/04/23 12:36:34;;;;;;;0.10;0.10;;;14.90;99.90;;;;;;5038172;28;20112;-74
2023/04/23 12:39:18;;;;;;;0.20;0.20;;;14.90;99.90;;;;;;5038704;28;20029;-73
2023/04/23 12:41:44;;;;;;;0.15;0.15;;;14.90;99.90;;;;;;5038607;28;20029;-74
2023/04/23 12:44:10;;;;;;;0.20;0.20;;;14.90;99.90;;;;;;5038483;28;20079;-75
2023/04/23 12:46:36;;;;;;;0.10;0.10;;;14.90;99.90;;;;;;5037346;28;20033;-74
2023/04/23 12:49:01;;;;;;;0.20;0.20;;;15.00;99.90;;;;;;5036921;28;20395;-74
2023/04/23 12:51:27;;;;;;;0.20;0.20;;;15.20;99.90;;;;;;5038785;28;20560;-74
2023/04/23 12:53:52;;;;;;;0.15;0.15;;;15.50;99.90;;;;;;5037989;28;20437;-74